sensor_id;sensor_type;location;lat;lon;timestamp;pressure;altitude;pressure_sealevel;temperature;humidity
66689;BME280;53587;59.318;18.084;2023-06-22T00:00:37;101173.72;;;20.51;80.51
66689;BME280;53587;59.318;18.084;2023-06-22T00:03:04;101175.00;;;20.59;80.04
66689;BME280;53587;59.318;18.084;2023-06-22T00:05:29;101169.91;;;20.66;79.75
66689;BME280;53587;59.318;18.084;2023-06-22T00:07:54;101166.25;;;20.71;79.33
66689;BME280;53587;59.318;18.084;2023-06-22T00:10:19;101169.78;;;20.77;79.65
66689;BME280;53587;59.318;18.084;2023-06-22T00:12:45;101164.47;;;20.80;78.67
66689;BME280;53587;59.318;18.084;2023-06-22T00:15:10;101157.50;;;20.83;79.09
66689;BME280;53587;59.318;18.084;2023-06-22T00:17:35;101163.28;;;20.86;78.65
66689;BME280;53587;59.318;18.084;2023-06-22T00:20:00;101159.63;;;20.91;78.39
66689;BME280;53587;59.318;18.084;2023-06-22T00:22:25;101159.31;;;20.73;77.57
66689;BME280;53587;59.318;18.084;2023-06-22T00:24:53;101155.63;;;20.16;74.80
66689;BME280;53587;59.318;18.084;2023-06-22T00:27:19;101158.84;;;19.74;74.14
66689;BME280;53587;59.318;18.084;2023-06-22T00:29:44;101159.69;;;19.40;74.45
66689;BME280;53587;59.318;18.084;2023-06-22T00:32:09;101161.41;;;19.36;78.47
66689;BME280;53587;59.318;18.084;2023-06-22T00:34:34;101158.97;;;19.59;81.24
66689;BME280;53587;59.318;18.084;2023-06-22T00:36:59;101163.22;;;19.75;82.68
66689;BME280;53587;59.318;18.084;2023-06-22T00:39:25;101161.16;;;19.91;83.69
66689;BME280;53587;59.318;18.084;2023-06-22T00:41:50;101160.69;;;20.08;82.87
66689;BME280;53587;59.318;18.084;2023-06-22T00:44:15;101158.06;;;20.22;82.24
66689;BME280;53587;59.318;18.084;2023-06-22T00:46:40;101165.59;;;20.36;82.16
66689;BME280;53587;59.318;18.084;2023-06-22T00:49:06;101168.53;;;20.44;81.25
66689;BME280;53587;59.318;18.084;2023-06-22T00:51:31;101165.97;;;20.53;80.56
66689;BME280;53587;59.318;18.084;2023-06-22T00:53:57;101161.69;;;20.61;80.50
66689;BME280;53587;59.318;18.084;2023-06-22T00:56:23;101158.25;;;20.69;80.07
66689;BME280;53587;59.318;18.084;2023-06-22T00:58:49;101160.44;;;20.72;80.23
66689;BME280;53587;59.318;18.084;2023-06-22T01:01:17;101157.59;;;20.78;79.45
66689;BME280;53587;59.318;18.084;2023-06-22T01:03:42;101155.28;;;20.85;79.38
66689;BME280;53587;59.318;18.084;2023-06-22T01:06:13;101153.03;;;20.87;78.87
66689;BME280;53587;59.318;18.084;2023-06-22T01:08:42;101158.81;;;20.90;79.05
66689;BME280;53587;59.318;18.084;2023-06-22T01:11:23;101157.38;;;20.93;78.74
66689;BME280;53587;59.318;18.084;2023-06-22T01:13:53;101156.03;;;20.71;77.60
66689;BME280;53587;59.318;18.084;2023-06-22T01:16:23;101153.41;;;20.18;75.45
66689;BME280;53587;59.318;18.084;2023-06-22T01:18:49;101161.13;;;19.67;75.12
66689;BME280;53587;59.318;18.084;2023-06-22T01:21:16;101161.41;;;19.36;74.81
66689;BME280;53587;59.318;18.084;2023-06-22T01:28:55;101153.25;;;19.79;82.86
66689;BME280;53587;59.318;18.084;2023-06-22T01:31:26;101153.63;;;19.97;83.01
66689;BME280;53587;59.318;18.084;2023-06-22T01:33:55;101148.44;;;20.15;83.22
66689;BME280;53587;59.318;18.084;2023-06-22T01:36:22;101147.72;;;20.28;82.71
66689;BME280;53587;59.318;18.084;2023-06-22T01:38:48;101150.88;;;20.40;82.36
66689;BME280;53587;59.318;18.084;2023-06-22T01:41:14;101161.31;;;20.49;81.93
66689;BME280;53587;59.318;18.084;2023-06-22T01:43:40;101152.03;;;20.58;81.08
66689;BME280;53587;59.318;18.084;2023-06-22T01:46:05;101152.50;;;20.66;80.74
66689;BME280;53587;59.318;18.084;2023-06-22T01:48:31;101144.09;;;20.71;80.32
66689;BME280;53587;59.318;18.084;2023-06-22T01:50:56;101148.78;;;20.75;80.31
66689;BME280;53587;59.318;18.084;2023-06-22T01:53:22;101145.94;;;20.81;79.50
66689;BME280;53587;59.318;18.084;2023-06-22T01:55:47;101149.75;;;20.85;79.58
66689;BME280;53587;59.318;18.084;2023-06-22T01:58:13;101154.69;;;20.88;79.34
66689;BME280;53587;59.318;18.084;2023-06-22T02:00:38;101146.88;;;20.90;79.06
66689;BME280;53587;59.318;18.084;2023-06-22T02:03:11;101151.84;;;20.93;78.81
66689;BME280;53587;59.318;18.084;2023-06-22T02:05:38;101158.63;;;20.63;77.93
66689;BME280;53587;59.318;18.084;2023-06-22T02:08:08;101152.16;;;20.05;75.21
66689;BME280;53587;59.318;18.084;2023-06-22T02:10:34;101148.16;;;19.62;75.22
66689;BME280;53587;59.318;18.084;2023-06-22T02:13:01;101160.41;;;19.22;75.03
66689;BME280;53587;59.318;18.084;2023-06-22T02:15:27;101161.09;;;19.38;79.68
66689;BME280;53587;59.318;18.084;2023-06-22T02:17:53;101156.22;;;19.59;82.92
66689;BME280;53587;59.318;18.084;2023-06-22T02:20:18;101148.81;;;19.78;83.28
66689;BME280;53587;59.318;18.084;2023-06-22T02:22:43;101155.34;;;19.93;83.41
66689;BME280;53587;59.318;18.084;2023-06-22T02:25:09;101152.69;;;20.07;83.29
66689;BME280;53587;59.318;18.084;2023-06-22T02:27:34;101154.44;;;20.22;83.02
66689;BME280;53587;59.318;18.084;2023-06-22T02:29:59;101160.91;;;20.36;82.33
66689;BME280;53587;59.318;18.084;2023-06-22T02:32:24;101148.03;;;20.46;82.05
66689;BME280;53587;59.318;18.084;2023-06-22T02:34:50;101143.50;;;20.55;81.43
66689;BME280;53587;59.318;18.084;2023-06-22T02:37:16;101149.78;;;20.60;80.93
66689;BME280;53587;59.318;18.084;2023-06-22T02:39:41;101150.84;;;20.65;80.72
66689;BME280;53587;59.318;18.084;2023-06-22T02:42:06;101151.56;;;20.70;80.47
66689;BME280;53587;59.318;18.084;2023-06-22T02:44:32;101146.00;;;20.75;80.23
66689;BME280;53587;59.318;18.084;2023-06-22T02:46:57;101147.06;;;20.80;79.72
66689;BME280;53587;59.318;18.084;2023-06-22T02:49:23;101150.84;;;20.84;79.82
66689;BME280;53587;59.318;18.084;2023-06-22T02:51:48;101136.44;;;20.87;79.43
66689;BME280;53587;59.318;18.084;2023-06-22T02:54:13;101152.44;;;20.90;79.28
66689;BME280;53587;59.318;18.084;2023-06-22T02:56:39;101152.97;;;20.92;78.99
66689;BME280;53587;59.318;18.084;2023-06-22T02:59:05;101145.53;;;20.68;77.75
66689;BME280;53587;59.318;18.084;2023-06-22T03:01:31;101144.16;;;20.03;76.30
66689;BME280;53587;59.318;18.084;2023-06-22T03:04:02;101157.31;;;19.58;75.30
66689;BME280;53587;59.318;18.084;2023-06-22T03:06:27;101156.84;;;19.16;75.78
66689;BME280;53587;59.318;18.084;2023-06-22T03:11:20;101160.75;;;19.44;83.88
66689;BME280;53587;59.318;18.084;2023-06-22T03:13:45;101164.44;;;19.64;84.62
66689;BME280;53587;59.318;18.084;2023-06-22T03:16:11;101159.28;;;19.87;84.38
66689;BME280;53587;59.318;18.084;2023-06-22T03:18:36;101163.53;;;20.03;84.06
66689;BME280;53587;59.318;18.084;2023-06-22T03:21:01;101172.16;;;20.21;83.58
66689;BME280;53587;59.318;18.084;2023-06-22T03:23:27;101168.13;;;20.32;82.95
66689;BME280;53587;59.318;18.084;2023-06-22T03:25:52;101172.44;;;20.43;81.85
66689;BME280;53587;59.318;18.084;2023-06-22T03:28:20;101172.31;;;20.54;81.80
66689;BME280;53587;59.318;18.084;2023-06-22T03:30:45;101169.47;;;20.59;81.09
66689;BME280;53587;59.318;18.084;2023-06-22T03:33:11;101165.50;;;20.65;80.73
66689;BME280;53587;59.318;18.084;2023-06-22T03:35:36;101163.50;;;20.71;80.51
66689;BME280;53587;59.318;18.084;2023-06-22T03:38:01;101165.09;;;20.77;80.32
66689;BME280;53587;59.318;18.084;2023-06-22T03:40:26;101156.47;;;20.79;80.02
66689;BME280;53587;59.318;18.084;2023-06-22T03:42:51;101165.31;;;20.81;80.00
66689;BME280;53587;59.318;18.084;2023-06-22T03:45:17;101168.00;;;20.86;79.79
66689;BME280;53587;59.318;18.084;2023-06-22T03:47:42;101161.84;;;20.89;79.60
66689;BME280;53587;59.318;18.084;2023-06-22T03:50:07;101158.50;;;20.92;79.48
66689;BME280;53587;59.318;18.084;2023-06-22T03:52:32;101159.84;;;20.95;79.50
66689;BME280;53587;59.318;18.084;2023-06-22T03:54:58;101161.22;;;20.54;77.56
66689;BME280;53587;59.318;18.084;2023-06-22T03:57:23;101135.38;;;19.96;76.05
66689;BME280;53587;59.318;18.084;2023-06-22T03:59:49;101147.44;;;19.52;75.21
66689;BME280;53587;59.318;18.084;2023-06-22T04:02:14;101143.59;;;19.18;75.76
66689;BME280;53587;59.318;18.084;2023-06-22T04:04:40;101144.28;;;19.34;81.30
66689;BME280;53587;59.318;18.084;2023-06-22T04:07:05;101147.69;;;19.55;83.59
66689;BME280;53587;59.318;18.084;2023-06-22T04:09:30;101141.09;;;19.75;84.43
66689;BME280;53587;59.318;18.084;2023-06-22T04:11:56;101147.06;;;19.93;83.78
66689;BME280;53587;59.318;18.084;2023-06-22T04:14:21;101149.63;;;20.08;83.98
66689;BME280;53587;59.318;18.084;2023-06-22T04:16:46;101152.22;;;20.24;83.56
66689;BME280;53587;59.318;18.084;2023-06-22T04:19:11;101147.38;;;20.35;82.77
66689;BME280;53587;59.318;18.084;2023-06-22T04:21:41;101149.16;;;20.44;82.35
66689;BME280;53587;59.318;18.084;2023-06-22T04:24:06;101150.16;;;20.54;81.40
66689;BME280;53587;59.318;18.084;2023-06-22T04:26:31;101147.31;;;20.59;81.23
66689;BME280;53587;59.318;18.084;2023-06-22T04:29:01;101144.69;;;20.68;80.27
66689;BME280;53587;59.318;18.084;2023-06-22T04:31:30;101147.41;;;20.73;79.39
66689;BME280;53587;59.318;18.084;2023-06-22T04:33:57;101145.72;;;20.77;79.55
66689;BME280;53587;59.318;18.084;2023-06-22T04:36:22;101148.69;;;20.81;79.35
66689;BME280;53587;59.318;18.084;2023-06-22T04:38:48;101143.66;;;20.83;78.91
66689;BME280;53587;59.318;18.084;2023-06-22T04:41:17;101135.59;;;20.86;78.68
66689;BME280;53587;59.318;18.084;2023-06-22T04:43:48;101152.44;;;20.90;78.55
66689;BME280;53587;59.318;18.084;2023-06-22T04:46:18;101150.19;;;20.92;78.25
66689;BME280;53587;59.318;18.084;2023-06-22T04:48:44;101150.41;;;20.96;78.19
66689;BME280;53587;59.318;18.084;2023-06-22T04:51:09;101151.97;;;20.64;75.97
66689;BME280;53587;59.318;18.084;2023-06-22T04:53:35;101153.06;;;20.00;75.11
66689;BME280;53587;59.318;18.084;2023-06-22T04:56:00;101158.22;;;19.53;75.09
66689;BME280;53587;59.318;18.084;2023-06-22T04:58:26;101155.22;;;19.15;74.75
66689;BME280;53587;59.318;18.084;2023-06-22T05:00:57;101160.16;;;19.18;79.58
66689;BME280;53587;59.318;18.084;2023-06-22T05:03:24;101152.22;;;19.41;83.36
66689;BME280;53587;59.318;18.084;2023-06-22T05:05:50;101152.88;;;19.62;84.34
66689;BME280;53587;59.318;18.084;2023-06-22T05:08:16;101157.63;;;19.86;83.21
66689;BME280;53587;59.318;18.084;2023-06-22T05:10:41;101150.22;;;20.05;81.66
66689;BME280;53587;59.318;18.084;2023-06-22T05:13:06;101148.09;;;20.21;80.88
66689;BME280;53587;59.318;18.084;2023-06-22T05:15:31;101162.84;;;20.36;80.41
66689;BME280;53587;59.318;18.084;2023-06-22T05:18:01;101155.22;;;20.47;79.58
66689;BME280;53587;59.318;18.084;2023-06-22T05:20:30;101157.88;;;20.57;79.65
66689;BME280;53587;59.318;18.084;2023-06-22T05:22:55;101156.69;;;20.63;79.19
66689;BME280;53587;59.318;18.084;2023-06-22T05:25:20;101159.38;;;20.68;78.83
66689;BME280;53587;59.318;18.084;2023-06-22T05:27:46;101156.56;;;20.73;78.53
66689;BME280;53587;59.318;18.084;2023-06-22T05:30:11;101152.59;;;20.80;78.10
66689;BME280;53587;59.318;18.084;2023-06-22T05:32:36;101155.59;;;20.83;77.94
66689;BME280;53587;59.318;18.084;2023-06-22T05:35:02;101161.34;;;20.87;77.57
66689;BME280;53587;59.318;18.084;2023-06-22T05:37:28;101169.03;;;20.90;77.36
66689;BME280;53587;59.318;18.084;2023-06-22T05:39:53;101163.41;;;20.95;77.21
66689;BME280;53587;59.318;18.084;2023-06-22T05:42:20;101171.50;;;20.53;75.21
66689;BME280;53587;59.318;18.084;2023-06-22T05:44:45;101160.22;;;20.01;73.92
66689;BME280;53587;59.318;18.084;2023-06-22T05:47:12;101166.97;;;19.60;74.48
66689;BME280;53587;59.318;18.084;2023-06-22T05:49:37;101171.97;;;19.29;75.21
66689;BME280;53587;59.318;18.084;2023-06-22T05:52:02;101172.59;;;19.50;79.57
66689;BME280;53587;59.318;18.084;2023-06-22T05:54:28;101168.31;;;19.68;82.19
66689;BME280;53587;59.318;18.084;2023-06-22T05:56:53;101172.00;;;19.88;81.54
66689;BME280;53587;59.318;18.084;2023-06-22T05:59:18;101171.25;;;20.06;81.59
66689;BME280;53587;59.318;18.084;2023-06-22T06:01:44;101171.03;;;20.22;80.70
66689;BME280;53587;59.318;18.084;2023-06-22T06:04:09;101175.06;;;20.35;80.48
66689;BME280;53587;59.318;18.084;2023-06-22T06:06:34;101178.50;;;20.46;79.53
66689;BME280;53587;59.318;18.084;2023-06-22T06:09:02;101172.84;;;20.56;78.99
66689;BME280;53587;59.318;18.084;2023-06-22T06:11:27;101179.94;;;20.62;78.87
66689;BME280;53587;59.318;18.084;2023-06-22T06:13:52;101176.00;;;20.68;78.32
66689;BME280;53587;59.318;18.084;2023-06-22T06:16:17;101179.03;;;20.72;77.68
66689;BME280;53587;59.318;18.084;2023-06-22T06:18:43;101180.28;;;20.80;77.62
66689;BME280;53587;59.318;18.084;2023-06-22T06:21:08;101180.50;;;20.83;77.26
66689;BME280;53587;59.318;18.084;2023-06-22T06:23:33;101175.19;;;20.87;77.64
66689;BME280;53587;59.318;18.084;2023-06-22T06:25:58;101179.84;;;20.91;76.60
66689;BME280;53587;59.318;18.084;2023-06-22T06:28:24;101183.66;;;20.96;76.71
66689;BME280;53587;59.318;18.084;2023-06-22T06:30:49;101182.69;;;20.43;74.35
66689;BME280;53587;59.318;18.084;2023-06-22T06:33:16;101179.69;;;19.91;74.80
66689;BME280;53587;59.318;18.084;2023-06-22T06:35:42;101183.09;;;19.53;74.11
66689;BME280;53587;59.318;18.084;2023-06-22T06:38:07;101188.09;;;19.17;75.34
66689;BME280;53587;59.318;18.084;2023-06-22T06:40:32;101185.16;;;19.37;81.24
66689;BME280;53587;59.318;18.084;2023-06-22T06:42:57;101188.28;;;19.60;82.55
66689;BME280;53587;59.318;18.084;2023-06-22T06:45:23;101186.69;;;19.83;81.38
66689;BME280;53587;59.318;18.084;2023-06-22T06:47:49;101189.03;;;20.00;80.75
66689;BME280;53587;59.318;18.084;2023-06-22T06:50:14;101196.00;;;20.17;79.65
66689;BME280;53587;59.318;18.084;2023-06-22T06:52:40;101190.34;;;20.27;79.69
66689;BME280;53587;59.318;18.084;2023-06-22T06:55:05;101194.13;;;20.36;79.33
66689;BME280;53587;59.318;18.084;2023-06-22T06:57:37;101191.22;;;20.47;78.51
66689;BME280;53587;59.318;18.084;2023-06-22T07:00:02;101192.78;;;20.53;78.50
66689;BME280;53587;59.318;18.084;2023-06-22T07:02:42;101194.38;;;20.59;77.96
66689;BME280;53587;59.318;18.084;2023-06-22T07:05:08;101192.06;;;20.66;77.72
66689;BME280;53587;59.318;18.084;2023-06-22T07:07:33;101196.44;;;20.72;77.06
66689;BME280;53587;59.318;18.084;2023-06-22T07:09:59;101197.47;;;20.77;77.03
66689;BME280;53587;59.318;18.084;2023-06-22T07:12:24;101194.66;;;20.82;76.44
66689;BME280;53587;59.318;18.084;2023-06-22T07:14:49;101196.81;;;20.85;76.69
66689;BME280;53587;59.318;18.084;2023-06-22T07:17:16;101194.13;;;20.80;76.31
66689;BME280;53587;59.318;18.084;2023-06-22T07:19:41;101200.53;;;20.32;74.41
66689;BME280;53587;59.318;18.084;2023-06-22T07:22:07;101199.94;;;19.86;73.13
66689;BME280;53587;59.318;18.084;2023-06-22T07:24:32;101206.06;;;19.49;73.09
66689;BME280;53587;59.318;18.084;2023-06-22T07:26:57;101212.88;;;19.27;75.68
66689;BME280;53587;59.318;18.084;2023-06-22T07:29:24;101209.34;;;19.51;79.98
66689;BME280;53587;59.318;18.084;2023-06-22T07:31:49;101214.47;;;19.68;80.63
66689;BME280;53587;59.318;18.084;2023-06-22T07:34:16;101220.66;;;19.89;80.49
66689;BME280;53587;59.318;18.084;2023-06-22T07:36:41;101213.84;;;20.05;79.99
66689;BME280;53587;59.318;18.084;2023-06-22T07:39:06;101218.09;;;20.22;79.56
66689;BME280;53587;59.318;18.084;2023-06-22T07:41:32;101218.19;;;20.36;79.16
66689;BME280;53587;59.318;18.084;2023-06-22T07:43:57;101206.47;;;20.44;78.34
66689;BME280;53587;59.318;18.084;2023-06-22T07:46:22;101210.81;;;20.50;77.57
66689;BME280;53587;59.318;18.084;2023-06-22T07:48:47;101209.06;;;20.59;77.23
66689;BME280;53587;59.318;18.084;2023-06-22T07:51:13;101207.03;;;20.65;76.86
66689;BME280;53587;59.318;18.084;2023-06-22T07:53:39;101203.38;;;20.70;76.80
66689;BME280;53587;59.318;18.084;2023-06-22T07:56:05;101197.25;;;20.73;76.44
66689;BME280;53587;59.318;18.084;2023-06-22T07:58:32;101199.13;;;20.78;76.58
66689;BME280;53587;59.318;18.084;2023-06-22T08:00:57;101197.94;;;20.84;76.17
66689;BME280;53587;59.318;18.084;2023-06-22T08:03:22;101193.47;;;20.88;75.81
66689;BME280;53587;59.318;18.084;2023-06-22T08:05:48;101202.91;;;20.87;75.35
66689;BME280;53587;59.318;18.084;2023-06-22T08:08:14;101193.66;;;20.29;74.10
66689;BME280;53587;59.318;18.084;2023-06-22T08:10:39;101194.69;;;19.85;73.68
66689;BME280;53587;59.318;18.084;2023-06-22T08:13:05;101193.38;;;19.47;73.82
66689;BME280;53587;59.318;18.084;2023-06-22T08:15:30;101198.84;;;19.18;76.17
66689;BME280;53587;59.318;18.084;2023-06-22T08:17:55;101180.69;;;19.41;79.29
66689;BME280;53587;59.318;18.084;2023-06-22T08:20:20;101187.69;;;19.63;81.18
66689;BME280;53587;59.318;18.084;2023-06-22T08:22:46;101178.69;;;19.82;80.69
66689;BME280;53587;59.318;18.084;2023-06-22T08:25:11;101185.41;;;20.00;79.96
66689;BME280;53587;59.318;18.084;2023-06-22T08:27:36;101195.47;;;20.15;78.81
66689;BME280;53587;59.318;18.084;2023-06-22T08:30:05;101184.47;;;20.34;77.96
66689;BME280;53587;59.318;18.084;2023-06-22T08:32:31;101192.94;;;20.42;77.99
66689;BME280;53587;59.318;18.084;2023-06-22T08:34:57;101200.00;;;20.54;77.13
66689;BME280;53587;59.318;18.084;2023-06-22T08:37:23;101192.16;;;20.61;77.26
66689;BME280;53587;59.318;18.084;2023-06-22T08:39:55;101193.72;;;20.67;76.98
66689;BME280;53587;59.318;18.084;2023-06-22T08:42:24;101190.91;;;20.72;76.34
66689;BME280;53587;59.318;18.084;2023-06-22T08:44:55;101198.84;;;20.79;76.18
66689;BME280;53587;59.318;18.084;2023-06-22T08:47:24;101198.78;;;20.84;75.84
66689;BME280;53587;59.318;18.084;2023-06-22T08:49:49;101193.47;;;20.88;75.54
66689;BME280;53587;59.318;18.084;2023-06-22T08:52:22;101193.09;;;20.51;74.29
66689;BME280;53587;59.318;18.084;2023-06-22T08:54:51;101192.53;;;20.06;73.09
66689;BME280;53587;59.318;18.084;2023-06-22T08:57:20;101187.91;;;19.72;72.54
66689;BME280;53587;59.318;18.084;2023-06-22T08:59:45;101187.38;;;19.35;73.09
66689;BME280;53587;59.318;18.084;2023-06-22T09:02:10;101188.84;;;19.57;78.23
66689;BME280;53587;59.318;18.084;2023-06-22T09:04:39;101187.84;;;19.77;79.97
66689;BME280;53587;59.318;18.084;2023-06-22T09:07:04;101181.91;;;19.94;79.22
66689;BME280;53587;59.318;18.084;2023-06-22T09:09:29;101185.81;;;20.12;79.07
66689;BME280;53587;59.318;18.084;2023-06-22T09:11:55;101182.06;;;20.27;78.73
66689;BME280;53587;59.318;18.084;2023-06-22T09:14:20;101195.16;;;20.40;78.01
66689;BME280;53587;59.318;18.084;2023-06-22T09:16:45;101193.41;;;20.50;77.37
66689;BME280;53587;59.318;18.084;2023-06-22T09:19:11;101182.50;;;20.58;77.29
66689;BME280;53587;59.318;18.084;2023-06-22T09:21:36;101186.53;;;20.66;76.73
66689;BME280;53587;59.318;18.084;2023-06-22T09:24:10;101194.50;;;20.73;76.43
66689;BME280;53587;59.318;18.084;2023-06-22T09:26:35;101187.75;;;20.79;75.87
66689;BME280;53587;59.318;18.084;2023-06-22T09:29:00;101182.97;;;20.85;75.57
66689;BME280;53587;59.318;18.084;2023-06-22T09:31:26;101182.09;;;20.89;75.51
66689;BME280;53587;59.318;18.084;2023-06-22T09:33:52;101172.13;;;20.88;75.38
66689;BME280;53587;59.318;18.084;2023-06-22T09:36:18;101175.44;;;20.47;73.94
66689;BME280;53587;59.318;18.084;2023-06-22T09:38:43;101170.41;;;20.06;72.59
66689;BME280;53587;59.318;18.084;2023-06-22T09:41:08;101170.47;;;19.71;72.90
66689;BME280;53587;59.318;18.084;2023-06-22T09:43:33;101163.53;;;19.44;72.94
66689;BME280;53587;59.318;18.084;2023-06-22T09:46:02;101171.69;;;19.60;78.31
66689;BME280;53587;59.318;18.084;2023-06-22T09:48:30;101161.00;;;19.77;79.58
66689;BME280;53587;59.318;18.084;2023-06-22T09:50:58;101159.16;;;19.97;79.15
66689;BME280;53587;59.318;18.084;2023-06-22T09:53:24;101165.66;;;20.11;79.03
66689;BME280;53587;59.318;18.084;2023-06-22T09:55:49;101172.09;;;20.26;77.95
66689;BME280;53587;59.318;18.084;2023-06-22T09:58:17;101169.44;;;20.40;77.60
66689;BME280;53587;59.318;18.084;2023-06-22T10:00:42;101172.06;;;20.50;76.94
66689;BME280;53587;59.318;18.084;2023-06-22T10:03:07;101165.03;;;20.58;76.42
66689;BME280;53587;59.318;18.084;2023-06-22T10:05:33;101161.59;;;20.66;75.90
66689;BME280;53587;59.318;18.084;2023-06-22T10:07:58;101167.09;;;20.71;75.54
66689;BME280;53587;59.318;18.084;2023-06-22T10:10:23;101171.44;;;20.78;75.22
66689;BME280;53587;59.318;18.084;2023-06-22T10:12:54;101165.81;;;20.83;74.88
66689;BME280;53587;59.318;18.084;2023-06-22T10:15:23;101151.38;;;20.86;74.10
66689;BME280;53587;59.318;18.084;2023-06-22T10:17:48;101162.47;;;20.86;74.04
66689;BME280;53587;59.318;18.084;2023-06-22T10:20:14;101169.00;;;20.52;73.33
66689;BME280;53587;59.318;18.084;2023-06-22T10:22:40;101162.94;;;20.06;72.06
66689;BME280;53587;59.318;18.084;2023-06-22T10:25:06;101159.75;;;19.65;71.83
66689;BME280;53587;59.318;18.084;2023-06-22T10:27:31;101164.13;;;19.41;73.17
66689;BME280;53587;59.318;18.084;2023-06-22T10:30:07;101150.69;;;19.59;76.87
66689;BME280;53587;59.318;18.084;2023-06-22T10:32:32;101161.00;;;19.77;77.73
66689;BME280;53587;59.318;18.084;2023-06-22T10:34:58;101164.16;;;19.95;77.28
66689;BME280;53587;59.318;18.084;2023-06-22T10:37:23;101156.81;;;20.09;77.33
66689;BME280;53587;59.318;18.084;2023-06-22T10:39:51;101151.59;;;20.27;76.57
66689;BME280;53587;59.318;18.084;2023-06-22T10:42:17;101153.13;;;20.38;75.98
66689;BME280;53587;59.318;18.084;2023-06-22T10:44:42;101160.19;;;20.50;75.60
66689;BME280;53587;59.318;18.084;2023-06-22T10:47:09;101147.31;;;20.59;74.66
66689;BME280;53587;59.318;18.084;2023-06-22T10:49:36;101157.19;;;20.65;74.34
66689;BME280;53587;59.318;18.084;2023-06-22T10:52:01;101149.66;;;20.71;73.70
66689;BME280;53587;59.318;18.084;2023-06-22T10:54:26;101152.38;;;20.76;73.54
66689;BME280;53587;59.318;18.084;2023-06-22T10:56:52;101143.16;;;20.81;72.76
66689;BME280;53587;59.318;18.084;2023-06-22T10:59:17;101144.72;;;20.87;72.84
66689;BME280;53587;59.318;18.084;2023-06-22T11:01:45;101145.63;;;20.82;72.53
66689;BME280;53587;59.318;18.084;2023-06-22T11:04:10;101150.88;;;20.40;70.80
66689;BME280;53587;59.318;18.084;2023-06-22T11:06:39;101144.56;;;19.91;70.73
66689;BME280;53587;59.318;18.084;2023-06-22T11:09:04;101142.50;;;19.49;70.07
66689;BME280;53587;59.318;18.084;2023-06-22T11:11:29;101143.44;;;19.04;72.22
66689;BME280;53587;59.318;18.084;2023-06-22T11:13:57;101148.75;;;19.30;76.33
66689;BME280;53587;59.318;18.084;2023-06-22T11:16:26;101152.97;;;19.52;77.36
66689;BME280;53587;59.318;18.084;2023-06-22T11:18:52;101143.13;;;19.70;76.43
66689;BME280;53587;59.318;18.084;2023-06-22T11:21:17;101145.41;;;19.92;75.67
66689;BME280;53587;59.318;18.084;2023-06-22T11:23:42;101152.38;;;20.08;74.88
66689;BME280;53587;59.318;18.084;2023-06-22T11:26:07;101145.56;;;20.25;73.92
66689;BME280;53587;59.318;18.084;2023-06-22T11:28:33;101147.38;;;20.35;74.04
66689;BME280;53587;59.318;18.084;2023-06-22T11:30:58;101145.88;;;20.42;73.35
66689;BME280;53587;59.318;18.084;2023-06-22T11:33:23;101151.56;;;20.51;73.35
66689;BME280;53587;59.318;18.084;2023-06-22T11:35:51;101145.66;;;20.58;72.86
66689;BME280;53587;59.318;18.084;2023-06-22T11:38:16;101140.56;;;20.65;72.31
66689;BME280;53587;59.318;18.084;2023-06-22T11:40:42;101149.66;;;20.71;71.90
66689;BME280;53587;59.318;18.084;2023-06-22T11:43:09;101140.47;;;20.75;72.09
66689;BME280;53587;59.318;18.084;2023-06-22T11:45:35;101126.53;;;20.81;71.11
66689;BME280;53587;59.318;18.084;2023-06-22T11:48:00;101138.66;;;20.85;70.81
66689;BME280;53587;59.318;18.084;2023-06-22T11:50:25;101135.53;;;20.72;70.35
66689;BME280;53587;59.318;18.084;2023-06-22T11:52:54;101132.91;;;20.19;70.19
66689;BME280;53587;59.318;18.084;2023-06-22T11:55:19;101133.53;;;19.62;69.62
66689;BME280;53587;59.318;18.084;2023-06-22T11:57:53;101137.91;;;19.04;68.58
66689;BME280;53587;59.318;18.084;2023-06-22T12:00:19;101137.97;;;18.94;73.71
66689;BME280;53587;59.318;18.084;2023-06-22T12:02:45;101135.09;;;19.09;77.36
66689;BME280;53587;59.318;18.084;2023-06-22T12:05:11;101140.25;;;19.51;76.35
66689;BME280;53587;59.318;18.084;2023-06-22T12:07:42;101139.47;;;19.74;75.40
66689;BME280;53587;59.318;18.084;2023-06-22T12:10:07;101142.56;;;19.97;73.83
66689;BME280;53587;59.318;18.084;2023-06-22T12:12:34;101142.41;;;20.13;73.54
66689;BME280;53587;59.318;18.084;2023-06-22T12:14:59;101146.06;;;20.27;73.12
66689;BME280;53587;59.318;18.084;2023-06-22T12:17:28;101147.56;;;20.38;72.07
66689;BME280;53587;59.318;18.084;2023-06-22T12:19:53;101150.22;;;20.49;71.76
66689;BME280;53587;59.318;18.084;2023-06-22T12:22:21;101136.00;;;20.55;71.38
66689;BME280;53587;59.318;18.084;2023-06-22T12:24:46;101139.53;;;20.61;71.29
66689;BME280;53587;59.318;18.084;2023-06-22T12:27:17;101139.16;;;20.68;70.75
66689;BME280;53587;59.318;18.084;2023-06-22T12:29:43;101138.28;;;20.72;70.20
66689;BME280;53587;59.318;18.084;2023-06-22T12:32:11;101141.28;;;20.76;69.95
66689;BME280;53587;59.318;18.084;2023-06-22T12:34:49;101142.84;;;20.82;69.84
66689;BME280;53587;59.318;18.084;2023-06-22T12:37:14;101140.91;;;20.83;69.66
66689;BME280;53587;59.318;18.084;2023-06-22T12:39:40;101131.50;;;20.40;69.40
66689;BME280;53587;59.318;18.084;2023-06-22T12:42:06;101134.63;;;19.90;68.59